createdAt,value
2023-05-08T00:00:59.470Z,98850.38
2023-05-08T00:02:01.389Z,98854.19
2023-05-08T00:03:03.776Z,98853.38
2023-05-08T00:04:06.156Z,98852.06
2023-05-08T00:05:08.897Z,98852.56
2023-05-08T00:06:10.976Z,98847.16
2023-05-08T00:07:12.981Z,98852.28
2023-05-08T00:08:14.824Z,98852.56
2023-05-08T00:09:16.702Z,98856.09
2023-05-08T00:10:18.979Z,98850.16
2023-05-08T00:11:21.054Z,98851.78
2023-05-08T00:12:22.840Z,98850.69
2023-05-08T00:13:25.013Z,98853.69
2023-05-08T00:14:27.012Z,98861.78
2023-05-08T00:15:28.950Z,98852.06
2023-05-08T00:16:32.267Z,98854.47
2023-05-08T00:17:34.191Z,98858.28
2023-05-08T00:18:37.865Z,98858.28
2023-05-08T00:19:39.640Z,98857.47
2023-05-08T00:20:41.834Z,98855.06
2023-05-08T00:21:43.640Z,98855.56
2023-05-08T00:22:45.481Z,98860.19
2023-05-08T00:23:47.461Z,98863.97
2023-05-08T00:24:49.354Z,98862.88
2023-05-08T00:25:51.233Z,98859.38
2023-05-08T00:26:53.083Z,98859.66
2023-05-08T00:27:55.015Z,98855.59
2023-05-08T00:28:57.251Z,98856.16
2023-05-08T00:29:59.345Z,98851.56
2023-05-08T00:31:02.323Z,98858.56
2023-05-08T00:32:04.391Z,98853.47
2023-05-08T00:33:06.360Z,98854.53
2023-05-08T00:34:08.228Z,98859.94
2023-05-08T00:35:10.100Z,98854.53
2023-05-08T00:36:12.605Z,98850.19
2023-05-08T00:37:14.516Z,98862.09
2023-05-08T00:38:16.434Z,98854.00
2023-05-08T00:39:18.843Z,98856.69
2023-05-08T00:40:20.933Z,98859.09
2023-05-08T00:41:22.867Z,98850.19
2023-05-08T00:42:24.886Z,98848.59
2023-05-08T00:43:28.301Z,98849.69
2023-05-08T00:44:30.201Z,98854.28
2023-05-08T00:45:40.057Z,98859.41
2023-05-08T00:46:43.412Z,98861.88
2023-05-08T00:47:45.591Z,98852.97
2023-05-08T00:48:47.965Z,98857.78
2023-05-08T00:49:50.038Z,98858.88
2023-05-08T00:50:54.697Z,98860.00
2023-05-08T00:51:57.518Z,98854.56
2023-05-08T00:53:03.896Z,98863.50
2023-05-08T00:54:05.887Z,98864.59
2023-05-08T00:55:08.501Z,98859.78
2023-05-08T00:56:15.694Z,98863.50
2023-05-08T00:57:18.739Z,98855.97
2023-05-08T00:58:23.602Z,98864.59
2023-05-08T00:59:26.982Z,98864.38
2023-05-08T01:00:29.614Z,98864.09
2023-05-08T01:01:33.932Z,98867.06
2023-05-08T01:02:36.631Z,98871.38
2023-05-08T01:03:39.350Z,98869.78
2023-05-08T01:04:44.423Z,98867.06
2023-05-08T01:05:46.529Z,98871.38
2023-05-08T01:06:48.634Z,98868.44
2023-05-08T01:07:51.245Z,98869.25
2023-05-08T01:08:53.152Z,98868.19
2023-05-08T01:09:55.041Z,98866.53
2023-05-08T01:11:15.339Z,98866.78
2023-05-08T01:12:38.743Z,98868.69
2023-05-08T01:13:57.798Z,98866.78
2023-05-08T01:15:21.366Z,98872.50
2023-05-08T01:16:37.999Z,98870.63
2023-05-08T01:18:15.807Z,98875.47
2023-05-08T01:20:01.347Z,98872.75
2023-05-08T01:21:46.049Z,98877.34
2023-05-08T01:23:15.828Z,98881.75
2023-05-08T01:24:48.760Z,98882.03
2023-05-08T01:25:50.628Z,98878.31
2023-05-08T01:27:26.280Z,98884.22
2023-05-08T01:28:59.483Z,98885.31
2023-05-08T01:30:38.080Z,98886.41
2023-05-08T01:32:24.932Z,98887.50
2023-05-08T01:33:38.748Z,98888.38
2023-05-08T01:35:07.885Z,98884.56
2023-05-08T01:36:28.508Z,98886.47
2023-05-08T01:37:46.158Z,98895.66
2023-05-08T01:39:08.014Z,98888.66
2023-05-08T01:40:25.299Z,98889.75
2023-05-08T01:41:31.776Z,98898.16
2023-05-08T01:42:44.984Z,98897.34
2023-05-08T01:43:55.561Z,98893.25
2023-05-08T01:45:03.479Z,98897.34
2023-05-08T01:46:14.773Z,98903.25
2023-05-08T01:47:20.552Z,98896.53
2023-05-08T01:48:35.623Z,98906.78
2023-05-08T01:50:02.088Z,98900.56
2023-05-08T01:51:17.228Z,98906.25
2023-05-08T01:52:32.000Z,98906.25
2023-05-08T01:53:44.106Z,98904.66
2023-05-08T01:55:21.226Z,98905.69
2023-05-08T01:56:27.177Z,98910.88
2023-05-08T01:57:34.775Z,98907.34
2023-05-08T01:58:38.559Z,98915.72
2023-05-08T01:59:44.615Z,98911.94
2023-05-08T02:00:48.443Z,98918.72
2023-05-08T02:01:57.139Z,98907.63
2023-05-08T02:03:00.924Z,98910.63
2023-05-08T02:04:06.534Z,98907.91
2023-05-08T02:05:10.089Z,98907.41
2023-05-08T02:06:17.718Z,98911.41
2023-05-08T02:07:24.686Z,98910.31
2023-05-08T02:08:29.619Z,98903.59
2023-05-08T02:09:32.475Z,98904.13
2023-05-08T02:10:37.397Z,98907.09
2023-05-08T02:11:43.695Z,98907.09
2023-05-08T02:12:48.519Z,98905.78
2023-05-08T02:13:52.316Z,98903.09
2023-05-08T02:14:56.532Z,98899.59
2023-05-08T02:16:00.840Z,98902.78
2023-05-08T02:17:06.239Z,98899.81
2023-05-08T02:18:09.894Z,98903.59
2023-05-08T02:19:14.879Z,98897.97
2023-05-08T02:20:18.674Z,98904.19
2023-05-08T02:21:23.589Z,98904.69
2023-05-08T02:22:28.124Z,98903.09
2023-05-08T02:23:33.116Z,98897.69
2023-05-08T02:24:38.471Z,98906.00
2023-05-08T02:25:41.441Z,98905.78
2023-05-08T02:26:46.503Z,98909.00
2023-05-08T02:27:52.111Z,98900.38
2023-05-08T02:28:56.167Z,98902.56
2023-05-08T02:30:00.632Z,98902.56
2023-05-08T02:31:03.660Z,98904.19
2023-05-08T02:32:08.921Z,98903.38
2023-05-08T02:33:13.933Z,98902.78
2023-05-08T02:34:18.075Z,98906.09
2023-05-08T02:35:20.785Z,98907.97
2023-05-08T02:36:24.378Z,98901.78
2023-05-08T02:37:27.953Z,98907.97
2023-05-08T02:38:31.845Z,98902.56
2023-05-08T02:39:38.071Z,98909.59
2023-05-08T02:40:47.417Z,98903.38
2023-05-08T02:41:49.578Z,98899.34
2023-05-08T02:42:52.119Z,98899.88
2023-05-08T02:43:55.045Z,98908.56
2023-05-08T02:44:57.607Z,98906.38
2023-05-08T02:46:46.824Z,98900.38
2023-05-08T02:48:15.382Z,98899.06
2023-05-08T02:49:43.640Z,98896.13
2023-05-08T02:50:56.001Z,98899.91
2023-05-08T02:52:23.009Z,98893.16
2023-05-08T02:53:45.552Z,98900.72
2023-05-08T02:55:00.330Z,98894.78
2023-05-08T02:56:43.613Z,98904.22
2023-05-08T02:58:31.317Z,98901.50
2023-05-08T02:59:42.795Z,98908.59
2023-05-08T03:00:53.129Z,98909.19
2023-05-08T03:02:10.716Z,98896.75
2023-05-08T03:03:27.372Z,98911.88
2023-05-08T03:04:45.708Z,98906.47
2023-05-08T03:05:53.866Z,98909.47
2023-05-08T03:06:59.503Z,98905.69
2023-05-08T03:08:08.160Z,98909.47
2023-05-08T03:09:20.815Z,98905.16
2023-05-08T03:10:31.780Z,98903.53
2023-05-08T03:11:44.530Z,98906.75
2023-05-08T03:12:52.165Z,98908.38
2023-05-08T03:14:01.054Z,98906.25
2023-05-08T03:15:37.755Z,98904.88
2023-05-08T03:16:44.728Z,98907.84
2023-05-08T03:17:52.547Z,98908.91
2023-05-08T03:19:03.771Z,98911.63
2023-05-08T03:20:10.397Z,98906.75
2023-05-08T03:21:19.254Z,98907.03
2023-05-08T03:22:24.112Z,98905.41
2023-05-08T03:23:30.066Z,98900.81
2023-05-08T03:24:36.850Z,98897.06
2023-05-08T03:25:43.144Z,98906.22
2023-05-08T03:26:45.960Z,98900.00
2023-05-08T03:27:49.499Z,98902.72
2023-05-08T03:28:53.966Z,98904.91
2023-05-08T03:29:57.985Z,98900.00
2023-05-08T03:31:02.009Z,98904.09
2023-05-08T03:32:05.366Z,98906.50
2023-05-08T03:33:09.308Z,98901.66
2023-05-08T03:34:13.882Z,98895.19
2023-05-08T03:35:17.026Z,98902.50
2023-05-08T03:36:19.950Z,98901.66
2023-05-08T03:37:22.030Z,98898.69
2023-05-08T03:38:23.998Z,98900.59
2023-05-08T03:39:27.026Z,98898.69
2023-05-08T03:40:29.440Z,98901.66
2023-05-08T03:41:32.038Z,98902.50
2023-05-08T03:42:34.458Z,98898.69
2023-05-08T03:43:38.352Z,98901.41
2023-05-08T03:44:40.241Z,98894.66
2023-05-08T03:45:42.145Z,98903.28
2023-05-08T03:46:45.640Z,98895.44
2023-05-08T03:47:49.405Z,98900.84
2023-05-08T03:48:54.091Z,98898.44
2023-05-08T03:49:57.373Z,98898.44
2023-05-08T03:51:02.487Z,98898.94
2023-05-08T03:52:05.182Z,98906.84
2023-05-08T03:53:07.604Z,98898.72
2023-05-08T03:54:09.660Z,98898.44
2023-05-08T03:55:11.812Z,98895.22
2023-05-08T03:56:13.752Z,98899.81
2023-05-08T03:57:15.719Z,98897.94
2023-05-08T03:58:34.321Z,98896.03
2023-05-08T03:59:54.858Z,98892.22
2023-05-08T04:01:12.193Z,98896.84
2023-05-08T04:02:42.378Z,98902.22
2023-05-08T04:04:33.694Z,98900.34
2023-05-08T04:05:56.050Z,98895.78
2023-05-08T04:07:19.973Z,98902.78
2023-05-08T04:08:34.457Z,98894.97
2023-05-08T04:09:55.627Z,98901.19
2023-05-08T04:11:18.101Z,98901.75
2023-05-08T04:12:30.558Z,98903.66
2023-05-08T04:13:43.462Z,98908.53
2023-05-08T04:15:01.101Z,98910.16
2023-05-08T04:16:12.036Z,98910.44
2023-05-08T04:17:28.899Z,98909.34
2023-05-08T04:18:34.645Z,98907.44
2023-05-08T04:19:45.356Z,98919.06
2023-05-08T04:20:50.814Z,98913.94
2023-05-08T04:21:58.907Z,98916.94
2023-05-08T04:23:04.030Z,98912.63
2023-05-08T04:24:10.455Z,98913.44
2023-05-08T04:25:16.469Z,98907.47
2023-05-08T04:26:19.432Z,98912.88
2023-05-08T04:27:22.034Z,98917.47
2023-05-08T04:28:24.561Z,98912.38
2023-05-08T04:29:27.185Z,98911.28
2023-05-08T04:30:30.232Z,98912.63
2023-05-08T04:31:34.633Z,98920.19
2023-05-08T04:32:40.537Z,98914.78
2023-05-08T04:33:45.481Z,98913.97
2023-05-08T04:34:47.593Z,98917.75
2023-05-08T04:35:50.358Z,98912.38
2023-05-08T04:36:52.230Z,98916.16
2023-05-08T04:37:54.537Z,98919.66
2023-05-08T04:38:56.490Z,98918.56
2023-05-08T04:39:59.552Z,98914.25
2023-05-08T04:41:01.434Z,98923.16
2023-05-08T04:42:04.781Z,98915.88
2023-05-08T04:43:06.704Z,98923.16
2023-05-08T04:44:08.678Z,98920.75
2023-05-08T04:45:11.327Z,98921.56
2023-05-08T04:46:13.454Z,98932.38
2023-05-08T04:47:15.404Z,98931.56
2023-05-08T04:48:18.986Z,98932.66
2023-05-08T04:49:21.102Z,98935.34
2023-05-08T04:50:23.062Z,98932.66
2023-05-08T04:51:24.942Z,98927.25
2023-05-08T04:52:26.849Z,98930.75
2023-05-08T04:53:28.742Z,98934.25
2023-05-08T04:54:30.758Z,98927.53
2023-05-08T04:55:32.626Z,98930.25
2023-05-08T04:56:34.422Z,98938.06
2023-05-08T04:57:36.316Z,98940.75
2023-05-08T04:58:38.236Z,98935.06
2023-05-08T04:59:40.177Z,98940.75
2023-05-08T05:00:42.160Z,98940.75
2023-05-08T05:01:46.873Z,98935.63
2023-05-08T05:02:49.035Z,98946.16
2023-05-08T05:03:51.155Z,98944.53
2023-05-08T05:04:53.134Z,98949.94
2023-05-08T05:06:02.142Z,98949.94
2023-05-08T05:07:04.935Z,98948.34
2023-05-08T05:08:06.966Z,98951.84
2023-05-08T05:09:09.240Z,98952.13
2023-05-08T05:10:11.334Z,98954.84
2023-05-08T05:11:13.544Z,98955.13
2023-05-08T05:12:15.740Z,98955.91
2023-05-08T05:13:17.759Z,98958.63
2023-05-08T05:14:19.831Z,98952.69
2023-05-08T05:15:22.572Z,98955.38
2023-05-08T05:16:24.508Z,98960.78
2023-05-08T05:17:26.551Z,98959.72
2023-05-08T05:18:28.630Z,98967.00
2023-05-08T05:19:30.496Z,98957.81
2023-05-08T05:20:32.785Z,98958.91
2023-05-08T05:21:34.652Z,98959.72
2023-05-08T05:22:36.619Z,98961.63
2023-05-08T05:23:38.949Z,98953.75
2023-05-08T05:24:41.629Z,98959.97
2023-05-08T05:25:43.500Z,98958.38
2023-05-08T05:26:45.845Z,98966.47
2023-05-08T05:27:47.724Z,98965.66
2023-05-08T05:28:49.879Z,98961.34
2023-05-08T05:29:52.044Z,98968.88
2023-05-08T05:30:54.063Z,98968.06
2023-05-08T05:31:56.336Z,98968.34
2023-05-08T05:32:58.680Z,98972.97
2023-05-08T05:34:01.059Z,98974.84
2023-05-08T05:35:03.062Z,98973.47
2023-05-08T05:36:05.435Z,98967.56
2023-05-08T05:37:07.949Z,98977.84
2023-05-08T05:38:09.873Z,98981.06
2023-05-08T05:39:11.882Z,98978.34
2023-05-08T05:40:14.480Z,98976.75
2023-05-08T05:41:16.402Z,98979.16
2023-05-08T05:42:18.225Z,98982.94
2023-05-08T05:43:20.364Z,98978.34
2023-05-08T05:44:22.547Z,98982.94
2023-05-08T05:45:24.871Z,98978.63
2023-05-08T05:46:32.354Z,98981.34
2023-05-08T05:47:34.413Z,98981.34
2023-05-08T05:48:36.601Z,98976.22
2023-05-08T05:49:39.719Z,98977.03
2023-05-08T05:50:41.785Z,98979.72
2023-05-08T05:51:43.662Z,98979.72
2023-05-08T05:52:46.169Z,98982.44
2023-05-08T05:53:48.008Z,98984.34
2023-05-08T05:54:49.995Z,98980.53
2023-05-08T05:55:53.098Z,98982.44
2023-05-08T05:56:54.983Z,98986.22
2023-05-08T05:57:56.904Z,98981.63
2023-05-08T05:58:58.782Z,98975.72
2023-05-08T06:00:01.483Z,98985.41
2023-05-08T06:01:03.833Z,98983.25
2023-05-08T06:02:07.897Z,98985.41
2023-05-08T06:03:11.399Z,98981.63
2023-05-08T06:04:13.859Z,98980.81
2023-05-08T06:05:15.821Z,98983.81
2023-05-08T06:06:18.023Z,98980.81
2023-05-08T06:07:21.439Z,98981.09
2023-05-08T06:08:23.399Z,98983.81
2023-05-08T06:09:26.829Z,98994.91
2023-05-08T06:10:28.954Z,98984.63
2023-05-08T06:11:31.653Z,98980.31
2023-05-08T06:12:33.802Z,98988.41
2023-05-08T06:13:35.828Z,98989.22
2023-05-08T06:14:37.748Z,98991.09
2023-05-08T06:15:39.742Z,98985.94
2023-05-08T06:16:41.772Z,98987.59
2023-05-08T06:17:43.898Z,98993.81
2023-05-08T06:18:45.773Z,98994.09
2023-05-08T06:19:50.707Z,98993.28
2023-05-08T06:20:58.627Z,98996.50
2023-05-08T06:22:00.634Z,98997.31
2023-05-08T06:23:02.494Z,98992.19
2023-05-08T06:24:04.812Z,98995.69
2023-05-08T06:25:08.451Z,98997.59
2023-05-08T06:26:10.628Z,98991.38
2023-05-08T06:27:12.613Z,98999.22
2023-05-08T06:28:14.730Z,98992.19
2023-05-08T06:29:16.659Z,98997.03
2023-05-08T06:30:18.657Z,99000.28
2023-05-08T06:31:20.934Z,98997.84
2023-05-08T06:32:22.973Z,98997.03
2023-05-08T06:33:26.757Z,99002.19
2023-05-08T06:34:29.106Z,98992.44
2023-05-08T06:35:31.180Z,98997.84
2023-05-08T06:36:33.377Z,99004.09
2023-05-08T06:37:35.537Z,99001.38
2023-05-08T06:38:37.430Z,98999.75
2023-05-08T06:39:40.233Z,98999.50
2023-05-08T06:40:44.378Z,99003.00
2023-05-08T06:41:49.578Z,99004.09
2023-05-08T06:42:51.527Z,98998.94
2023-05-08T06:43:53.449Z,99002.44
2023-05-08T06:44:55.527Z,99000.84
2023-05-08T06:45:57.549Z,98998.13
2023-05-08T06:46:59.648Z,99005.16
2023-05-08T06:48:01.872Z,99004.09
2023-05-08T06:49:05.126Z,99004.09
2023-05-08T06:50:07.867Z,99001.09
2023-05-08T06:51:09.946Z,99005.69
2023-05-08T06:52:11.910Z,98994.09
2023-05-08T06:53:14.027Z,98993.28
2023-05-08T06:54:15.969Z,99002.19
2023-05-08T06:55:18.142Z,98995.97
2023-05-08T06:56:20.028Z,98993.81
2023-05-08T06:57:22.008Z,99001.09
2023-05-08T06:58:23.863Z,99000.00
2023-05-08T06:59:25.831Z,98996.50
2023-05-08T07:00:28.000Z,98997.03
2023-05-08T07:01:29.951Z,99005.41
2023-05-08T07:02:32.060Z,99003.50
2023-05-08T07:03:33.991Z,98998.41
2023-05-08T07:04:37.010Z,99005.41
2023-05-08T07:05:38.909Z,99003.50
2023-05-08T07:06:40.818Z,99007.03
2023-05-08T07:07:43.063Z,99001.34
2023-05-08T07:08:45.109Z,98999.44
2023-05-08T07:09:46.946Z,99003.22
2023-05-08T07:10:48.840Z,99004.84
2023-05-08T07:11:50.742Z,98998.91
2023-05-08T07:12:52.814Z,99001.84
2023-05-08T07:13:54.833Z,99001.84
2023-05-08T07:14:57.964Z,99002.66
2023-05-08T07:15:59.965Z,99001.56
2023-05-08T07:17:07.115Z,99003.19
2023-05-08T07:18:09.456Z,99003.47
2023-05-08T07:19:11.642Z,99000.75
2023-05-08T07:20:13.604Z,98996.72
2023-05-08T07:21:18.069Z,99002.38
2023-05-08T07:22:20.010Z,99003.47
2023-05-08T07:23:21.956Z,98995.88
2023-05-08T07:24:24.722Z,99001.28
2023-05-08T07:25:26.853Z,99001.28
2023-05-08T07:26:28.886Z,99005.06
2023-05-08T07:27:30.925Z,99004.28
2023-05-08T07:28:32.906Z,99005.06
2023-05-08T07:29:38.499Z,99009.44
2023-05-08T07:30:42.632Z,99007.25
2023-05-08T07:31:46.563Z,99005.66
2023-05-08T07:32:48.708Z,99004.56
2023-05-08T07:33:50.782Z,99008.34
2023-05-08T07:34:52.612Z,99009.44
2023-05-08T07:35:54.652Z,99004.84
2023-05-08T07:36:56.600Z,99013.75
2023-05-08T07:37:58.948Z,99011.06
2023-05-08T07:39:01.228Z,99016.44
2023-05-08T07:40:03.488Z,99008.34
2023-05-08T07:41:05.737Z,99021.56
2023-05-08T07:42:07.745Z,99018.06
2023-05-08T07:43:09.971Z,99011.84
2023-05-08T07:44:12.043Z,99016.16
2023-05-08T07:45:14.362Z,99020.19
2023-05-08T07:46:18.542Z,99021.03
2023-05-08T07:47:20.521Z,99016.69
2023-05-08T07:48:22.991Z,99019.94
2023-05-08T07:49:24.921Z,99024.53
2023-05-08T07:50:27.111Z,99028.28
2023-05-08T07:51:29.191Z,99016.69
2023-05-08T07:52:31.762Z,99023.44
2023-05-08T07:53:33.661Z,99014.78
2023-05-08T07:54:35.494Z,99020.75
2023-05-08T07:55:37.871Z,99017.75
2023-05-08T07:56:39.844Z,99025.06
2023-05-08T07:57:43.723Z,99016.94
2023-05-08T07:58:47.868Z,99020.47
2023-05-08T07:59:49.653Z,99030.47
2023-05-08T08:00:51.458Z,99023.97
2023-05-08T08:01:53.461Z,99020.16
2023-05-08T08:02:55.656Z,99028.28
2023-05-08T08:03:57.853Z,99031.50
2023-05-08T08:05:00.256Z,99022.88
2023-05-08T08:06:02.307Z,99027.19
2023-05-08T08:07:04.244Z,99020.69
2023-05-08T08:08:06.124Z,99033.09
2023-05-08T08:09:08.205Z,99035.28
2023-05-08T08:10:10.595Z,99032.81
2023-05-08T08:11:12.492Z,99032.00
2023-05-08T08:12:14.526Z,99022.00
2023-05-08T08:13:17.540Z,99032.81
2023-05-08T08:14:19.790Z,99026.63
2023-05-08T08:15:21.695Z,99025.53
2023-05-08T08:16:23.883Z,99026.88
2023-05-08T08:17:28.543Z,99031.72
2023-05-08T08:18:35.776Z,99028.22
2023-05-08T08:19:37.735Z,99033.88
2023-05-08T08:20:39.711Z,99032.28
2023-05-08T08:21:44.690Z,99032.00
2023-05-08T08:22:47.085Z,99038.50
2023-05-08T08:23:49.304Z,99032.28
2023-05-08T08:24:52.478Z,99033.88
2023-05-08T08:25:56.845Z,99037.69
2023-05-08T08:26:58.813Z,99037.41
2023-05-08T08:28:01.037Z,99040.91
2023-05-08T08:29:02.995Z,99036.03
2023-05-08T08:30:16.999Z,99042.22
2023-05-08T08:31:20.141Z,99035.75
2023-05-08T08:32:22.326Z,99036.81
2023-05-08T08:33:24.530Z,99043.84
2023-05-08T08:34:26.623Z,99039.53
2023-05-08T08:35:30.151Z,99039.25
2023-05-08T08:36:32.588Z,99042.75
2023-05-08T08:37:34.512Z,99034.34
2023-05-08T08:38:36.435Z,99042.47
2023-05-08T08:39:38.384Z,99028.97
2023-05-08T08:40:41.646Z,99034.91
2023-05-08T08:41:43.828Z,99026.00
2023-05-08T08:42:47.161Z,99030.31
2023-05-08T08:43:49.346Z,99027.59
2023-05-08T08:44:51.316Z,99028.94
2023-05-08T08:45:53.325Z,99032.44
2023-05-08T08:47:00.062Z,99028.66
2023-05-08T08:48:04.345Z,99031.34
2023-05-08T08:49:09.842Z,99026.50
2023-05-08T08:50:15.605Z,99029.19
2023-05-08T08:51:32.928Z,99032.97
2023-05-08T08:53:05.711Z,99036.19
2023-05-08T08:54:12.235Z,99035.91
2023-05-08T08:55:18.466Z,99030.00
2023-05-08T08:56:23.780Z,99033.22
2023-05-08T08:57:32.919Z,99035.13
2023-05-08T08:58:52.135Z,99037.56
2023-05-08T08:59:55.597Z,99040.53
2023-05-08T09:01:00.996Z,99037.00
2023-05-08T09:02:12.790Z,99034.88
2023-05-08T09:03:15.947Z,99045.66
2023-05-08T09:04:18.177Z,99043.78
2023-05-08T09:05:23.649Z,99034.03
2023-05-08T09:06:27.881Z,99034.03
2023-05-08T09:07:30.603Z,99038.06
2023-05-08T09:08:35.025Z,99032.16
2023-05-08T09:09:45.382Z,99031.59
2023-05-08T09:10:47.441Z,99035.38
2023-05-08T09:11:49.513Z,99036.19
2023-05-08T09:12:52.318Z,99031.88
2023-05-08T09:13:58.365Z,99032.38
2023-05-08T09:15:00.426Z,99038.59
2023-05-08T09:16:02.674Z,99030.50
2023-05-08T09:17:04.932Z,99034.00
2023-05-08T09:18:06.819Z,99027.22
2023-05-08T09:19:10.574Z,99035.59
2023-05-08T09:20:16.219Z,99039.91
2023-05-08T09:21:18.472Z,99035.31
2023-05-08T09:22:21.278Z,99036.94
2023-05-08T09:23:23.329Z,99038.53
2023-05-08T09:24:25.379Z,99032.88
2023-05-08T09:25:41.434Z,99040.41
2023-05-08T09:26:43.335Z,99034.50
2023-05-08T09:27:46.566Z,99037.19
2023-05-08T09:28:48.468Z,99038.81
2023-05-08T09:30:08.065Z,99032.53
2023-05-08T09:31:10.008Z,99034.44
2023-05-08T09:32:18.750Z,99038.75
2023-05-08T09:33:24.304Z,99036.03
2023-05-08T09:34:28.924Z,99034.44
2023-05-08T09:35:37.039Z,99037.38
2023-05-08T09:36:41.955Z,99035.47
2023-05-08T09:37:44.243Z,99031.69
2023-05-08T09:38:46.241Z,99038.72
2023-05-08T09:39:48.597Z,99030.59
2023-05-08T09:41:10.800Z,99030.53
2023-05-08T09:42:12.734Z,99043.53
2023-05-08T09:43:14.642Z,99040.03
2023-05-08T09:44:16.975Z,99047.28
2023-05-08T09:45:33.006Z,99043.22
2023-05-08T09:46:35.271Z,99041.06
2023-05-08T09:47:40.336Z,99034.56
2023-05-08T09:48:43.320Z,99037.81
2023-05-08T09:50:03.291Z,99041.84
2023-05-08T09:51:08.039Z,99040.75
2023-05-08T09:52:16.353Z,99044.25
2023-05-08T09:53:18.320Z,99044.84
2023-05-08T09:54:20.896Z,99040.22
2023-05-08T09:55:22.800Z,99041.03
2023-05-08T09:56:33.997Z,99049.09
2023-05-08T09:57:39.895Z,99045.28
2023-05-08T09:58:44.802Z,99035.28
2023-05-08T09:59:46.799Z,99047.19
2023-05-08T10:00:48.640Z,99042.59
2023-05-08T10:01:51.005Z,99045.00
2023-05-08T10:03:01.142Z,99051.47
2023-05-08T10:04:05.930Z,99041.47
2023-05-08T10:05:31.175Z,99044.69
2023-05-08T10:06:33.880Z,99040.66
2023-05-08T10:07:37.329Z,99045.25
2023-05-08T10:08:39.194Z,99043.88
2023-05-08T10:09:57.921Z,99045.19
2023-05-08T10:11:21.315Z,99043.00
2023-05-08T10:12:23.306Z,99043.56
2023-05-08T10:13:26.306Z,99049.00
2023-05-08T10:14:28.196Z,99047.88
2023-05-08T10:15:31.854Z,99047.59
2023-05-08T10:16:43.922Z,99041.38
2023-05-08T10:17:56.461Z,99046.00
2023-05-08T10:19:06.345Z,99052.50
2023-05-08T10:20:09.764Z,99035.72
2023-05-08T10:21:13.413Z,99053.00
2023-05-08T10:22:16.237Z,99050.06
2023-05-08T10:23:19.406Z,99052.50
2023-05-08T10:24:33.939Z,99045.41
2023-05-08T10:25:43.638Z,99043.00
2023-05-08T10:27:06.403Z,99045.91
2023-05-08T10:28:27.469Z,99048.34
2023-05-08T10:29:42.579Z,99048.63
2023-05-08T10:30:50.774Z,99042.13
2023-05-08T10:31:59.919Z,99052.94
2023-05-08T10:33:09.992Z,99046.44
2023-05-08T10:34:22.720Z,99045.34
2023-05-08T10:35:26.193Z,99046.44
2023-05-08T10:36:31.065Z,99042.41
2023-05-08T10:37:36.389Z,99043.22
2023-05-08T10:38:41.386Z,99045.63
2023-05-08T10:39:45.048Z,99047.53
2023-05-08T10:40:48.336Z,99043.22
2023-05-08T10:41:50.906Z,99052.13
2023-05-08T10:42:53.588Z,99050.25
2023-05-08T10:43:56.721Z,99041.31
2023-05-08T10:44:59.416Z,99041.03
2023-05-08T10:46:25.812Z,99043.69
2023-05-08T10:47:46.128Z,99036.66
2023-05-08T10:49:16.584Z,99042.88
2023-05-08T10:50:57.044Z,99038.78
2023-05-08T10:52:47.345Z,99033.38
2023-05-08T10:54:19.419Z,99036.66
2023-05-08T10:55:33.775Z,99041.84
2023-05-08T10:56:39.619Z,99037.81
2023-05-08T10:57:41.800Z,99038.91
2023-05-08T10:58:43.663Z,99040.81
2023-05-08T10:59:47.629Z,99044.59
2023-05-08T11:01:01.118Z,99036.19
2023-05-08T11:02:08.275Z,99040.50
2023-05-08T11:03:20.064Z,99038.91
2023-05-08T11:04:29.755Z,99040.00
2023-05-08T11:05:31.668Z,99038.91
2023-05-08T11:06:49.444Z,99042.94
2023-05-08T11:07:56.582Z,99036.50
2023-05-08T11:09:00.491Z,99040.81
2023-05-08T11:10:14.460Z,99036.72
2023-05-08T11:11:32.081Z,99037.50
2023-05-08T11:12:37.016Z,99033.78
2023-05-08T11:13:47.421Z,99034.00
2023-05-08T11:15:15.525Z,99039.66
2023-05-08T11:16:17.562Z,99044.81
2023-05-08T11:17:25.061Z,99042.94
2023-05-08T11:18:41.807Z,99037.50
2023-05-08T11:19:58.613Z,99036.16
2023-05-08T11:21:15.256Z,99036.41
2023-05-08T11:22:28.952Z,99034.25
2023-05-08T11:23:32.820Z,99034.00
2023-05-08T11:24:40.196Z,99037.22
2023-05-08T11:25:44.072Z,99037.22
2023-05-08T11:26:50.193Z,99036.41
2023-05-08T11:28:12.353Z,99034.78
2023-05-08T11:29:17.833Z,99032.66
2023-05-08T11:30:38.578Z,99035.88
2023-05-08T11:31:51.740Z,99033.47
2023-05-08T11:33:03.318Z,99031.56
2023-05-08T11:34:43.775Z,99028.56
2023-05-08T11:36:00.130Z,99025.06
2023-05-08T11:37:02.831Z,99031.00
2023-05-08T11:38:28.864Z,99026.38
2023-05-08T11:39:30.682Z,99029.66
2023-05-08T11:40:49.285Z,99019.06
2023-05-08T11:41:51.122Z,99023.16
2023-05-08T11:42:56.537Z,99020.16
2023-05-08T11:44:09.288Z,99022.84
2023-05-08T11:45:14.539Z,99018.75
2023-05-08T11:46:20.254Z,99021.47
2023-05-08T11:47:24.716Z,99025.78
2023-05-08T11:48:26.722Z,99026.06
2023-05-08T11:49:30.161Z,99026.88
2023-05-08T11:50:35.361Z,99016.56
2023-05-08T11:51:39.063Z,99023.31
2023-05-08T11:52:43.306Z,99016.00
2023-05-08T11:53:46.952Z,99016.00
2023-05-08T11:54:49.290Z,99015.44
2023-05-08T11:55:54.349Z,99014.34
2023-05-08T11:56:57.784Z,99018.94
2023-05-08T11:57:59.782Z,99015.94
2023-05-08T11:59:05.854Z,99012.13
2023-05-08T12:00:11.170Z,99018.06
2023-05-08T12:01:20.223Z,99015.91
2023-05-08T12:02:46.679Z,99013.91
2023-05-08T12:03:48.982Z,99007.78
2023-05-08T12:04:51.006Z,99016.41
2023-05-08T12:05:57.943Z,99012.31
2023-05-08T12:07:00.355Z,99015.81
2023-05-08T12:08:06.220Z,99015.03
2023-05-08T12:09:17.764Z,99016.34
2023-05-08T12:10:19.793Z,99011.22
2023-05-08T12:11:25.003Z,99009.31
2023-05-08T12:12:41.156Z,99009.31
2023-05-08T12:13:43.108Z,99016.91
2023-05-08T12:14:49.645Z,99009.09
2023-05-08T12:16:01.866Z,99008.50
2023-05-08T12:17:03.873Z,99009.59
2023-05-08T12:18:05.946Z,99010.69
2023-05-08T12:19:13.822Z,99012.31
2023-05-08T12:20:19.243Z,99015.03
2023-05-08T12:21:21.893Z,99020.72
2023-05-08T12:22:23.937Z,99015.03
2023-05-08T12:23:29.387Z,99006.91
2023-05-08T12:24:31.441Z,99010.69
2023-05-08T12:25:33.450Z,99016.63
2023-05-08T12:26:39.503Z,99006.91
2023-05-08T12:27:41.397Z,99016.13
2023-05-08T12:28:46.651Z,99018.22
2023-05-08T12:29:48.469Z,99011.00
2023-05-08T12:30:50.959Z,99015.31
2023-05-08T12:31:56.238Z,99015.03
2023-05-08T12:32:58.625Z,99015.81
2023-05-08T12:34:03.632Z,99007.69
2023-05-08T12:35:08.426Z,99016.34
2023-05-08T12:36:12.060Z,99013.91
2023-05-08T12:37:27.491Z,99014.44
2023-05-08T12:38:30.403Z,99015.22
2023-05-08T12:39:37.635Z,99010.63
2023-05-08T12:40:46.573Z,99007.63
2023-05-08T12:41:51.043Z,99007.13
2023-05-08T12:42:53.397Z,99009.81
2023-05-08T12:43:57.325Z,99008.47
2023-05-08T12:44:59.146Z,99007.63
2023-05-08T12:46:02.233Z,98998.69
2023-05-08T12:47:06.610Z,99001.16
2023-05-08T12:48:15.671Z,98990.81
2023-05-08T12:49:28.895Z,99000.56
2023-05-08T12:50:36.854Z,98998.94
2023-05-08T12:51:41.072Z,98996.81
2023-05-08T12:52:43.840Z,98994.69
2023-05-08T12:53:46.639Z,98992.06
2023-05-08T12:54:49.391Z,99002.41
2023-05-08T12:55:55.835Z,98987.63
2023-05-08T12:56:57.738Z,98993.69
2023-05-08T12:58:06.358Z,98998.91
2023-05-08T12:59:08.421Z,98995.72
2023-05-08T13:00:12.165Z,99000.38